createdAt,value
2018-02-25T00:02:15.349Z,-1.40
2018-02-25T00:04:42.892Z,-1.40
2018-02-25T00:07:11.193Z,-1.50
2018-02-25T00:09:38.748Z,-1.50
2018-02-25T00:12:06.271Z,-1.50
2018-02-25T00:14:33.854Z,-1.60
2018-02-25T00:17:02.174Z,-1.60
2018-02-25T00:19:29.686Z,-1.60
2018-02-25T00:21:58.012Z,-1.60
2018-02-25T00:24:25.668Z,-1.60
2018-02-25T00:26:53.209Z,-1.70
2018-02-25T00:29:20.730Z,-1.70
2018-02-25T00:31:48.252Z,-1.70
2018-02-25T00:34:15.808Z,-1.80
2018-02-25T00:36:43.332Z,-1.80
2018-02-25T00:39:10.883Z,-1.70
2018-02-25T00:41:39.287Z,-1.70
2018-02-25T00:44:06.840Z,-1.70
2018-02-25T00:46:34.363Z,-1.70
2018-02-25T00:49:02.066Z,-1.80
2018-02-25T00:51:29.597Z,-1.80
2018-02-25T00:53:57.944Z,-1.80
2018-02-25T00:56:25.460Z,-1.80
2018-02-25T00:58:52.998Z,-1.80
2018-02-25T01:01:21.274Z,-1.90
2018-02-25T01:03:48.879Z,-1.90
2018-02-25T01:06:16.398Z,-1.90
2018-02-25T01:08:43.934Z,-1.90
2018-02-25T01:11:12.243Z,-1.90
2018-02-25T01:13:39.806Z,-2.00
2018-02-25T01:16:07.364Z,-2.00
2018-02-25T01:18:34.913Z,-2.00
2018-02-25T01:21:02.451Z,-2.00
2018-02-25T01:23:30.759Z,-2.10
2018-02-25T01:25:58.302Z,-2.10
2018-02-25T01:28:26.603Z,-2.10
2018-02-25T01:30:54.239Z,-2.10
2018-02-25T01:33:22.519Z,-2.10
2018-02-25T01:35:50.816Z,-2.10
2018-02-25T01:38:18.362Z,-2.10
2018-02-25T01:40:45.987Z,-2.10
2018-02-25T01:43:13.527Z,-2.10
2018-02-25T01:45:41.064Z,-2.10
2018-02-25T01:48:08.619Z,-2.10
2018-02-25T01:50:47.997Z,-2.20
2018-02-25T01:53:15.614Z,-2.20
2018-02-25T01:55:43.147Z,-2.20
2018-02-25T01:58:11.539Z,-2.20
2018-02-25T02:00:39.142Z,-2.20
2018-02-25T02:03:06.755Z,-2.20
2018-02-25T02:05:34.317Z,-2.20
2018-02-25T02:08:02.605Z,-2.20
2018-02-25T02:10:30.174Z,-2.20
2018-02-25T02:12:57.748Z,-2.20
2018-02-25T02:15:25.267Z,-2.20
2018-02-25T02:17:52.799Z,-2.20
2018-02-25T02:20:20.389Z,-2.30
2018-02-25T02:22:47.928Z,-2.30
2018-02-25T02:25:16.216Z,-2.30
2018-02-25T02:27:44.529Z,-2.30
2018-02-25T02:30:12.046Z,-2.30
2018-02-25T02:32:40.347Z,-2.40
2018-02-25T02:35:08.037Z,-2.40
2018-02-25T02:37:35.660Z,-2.40
2018-02-25T02:40:03.169Z,-2.40
2018-02-25T02:42:30.699Z,-2.50
2018-02-25T02:44:58.245Z,-2.40
2018-02-25T02:47:25.789Z,-2.40
2018-02-25T02:49:54.092Z,-2.50
2018-02-25T02:52:21.746Z,-2.50
2018-02-25T02:54:49.253Z,-2.50
2018-02-25T02:57:16.793Z,-2.50
2018-02-25T02:59:44.327Z,-2.60
2018-02-25T03:02:11.849Z,-2.60
2018-02-25T03:04:40.125Z,-2.60
2018-02-25T03:07:08.448Z,-2.60
2018-02-25T03:09:36.099Z,-2.60
2018-02-25T03:12:03.633Z,-2.60
2018-02-25T03:14:31.914Z,-2.70
2018-02-25T03:16:59.460Z,-2.70
2018-02-25T03:19:27.735Z,-2.80
2018-02-25T03:21:56.051Z,-2.80
2018-02-25T03:24:23.649Z,-2.80
2018-02-25T03:26:51.171Z,-2.70
2018-02-25T03:29:18.685Z,-2.70
2018-02-25T03:31:46.995Z,-2.80
2018-02-25T03:34:14.508Z,-2.90
2018-02-25T03:36:42.054Z,-2.90
2018-02-25T03:39:09.726Z,-2.80
2018-02-25T03:41:37.292Z,-2.80
2018-02-25T03:44:04.864Z,-2.90
2018-02-25T03:46:33.128Z,-3.00
2018-02-25T03:49:00.728Z,-3.00
2018-02-25T03:51:28.241Z,-3.00
2018-02-25T03:53:55.838Z,-3.00
2018-02-25T03:56:23.400Z,-3.10
2018-02-25T03:58:50.928Z,-3.10
2018-02-25T04:01:19.232Z,-3.20
2018-02-25T04:03:46.806Z,-3.20
2018-02-25T04:06:14.330Z,-3.20
2018-02-25T04:08:41.924Z,-3.10
2018-02-25T04:11:09.464Z,-3.20
2018-02-25T04:13:37.784Z,-3.20
2018-02-25T04:16:05.305Z,-3.20
2018-02-25T04:18:32.857Z,-3.10
2018-02-25T04:21:01.122Z,-3.20
2018-02-25T04:23:29.485Z,-3.20
2018-02-25T04:25:57.083Z,-3.20
2018-02-25T04:28:24.635Z,-3.20
2018-02-25T04:30:52.907Z,-3.20
2018-02-25T04:33:21.311Z,-3.30
2018-02-25T04:35:48.879Z,-3.30
2018-02-25T04:38:16.414Z,-3.30
2018-02-25T04:40:43.924Z,-3.30
2018-02-25T04:43:11.459Z,-3.30
2018-02-25T04:45:38.975Z,-3.40
2018-02-25T04:48:07.298Z,-3.30
2018-02-25T04:50:34.846Z,-3.30
2018-02-25T04:53:02.400Z,-3.40
2018-02-25T04:55:29.920Z,-3.40
2018-02-25T04:57:58.235Z,-3.40
2018-02-25T05:00:25.782Z,-3.40
2018-02-25T05:02:53.320Z,-3.50
2018-02-25T05:05:21.600Z,-3.50
2018-02-25T05:07:49.936Z,-3.50
2018-02-25T05:10:18.389Z,-3.60
2018-02-25T05:12:45.922Z,-3.60
2018-02-25T05:15:14.181Z,-3.60
2018-02-25T05:17:42.488Z,-3.70
2018-02-25T05:20:09.996Z,-3.70
2018-02-25T05:22:37.642Z,-3.60
2018-02-25T05:25:05.183Z,-3.60
2018-02-25T05:27:32.735Z,-3.60
2018-02-25T05:30:00.244Z,-3.60
2018-02-25T05:32:27.776Z,-3.60
2018-02-25T05:34:55.296Z,-3.60
2018-02-25T05:37:22.843Z,-3.60
2018-02-25T05:39:51.131Z,-3.70
2018-02-25T05:42:18.677Z,-3.70
2018-02-25T05:44:46.948Z,-3.70
2018-02-25T05:47:15.267Z,-3.70
2018-02-25T05:49:42.819Z,-3.80
2018-02-25T05:52:10.479Z,-3.80
2018-02-25T05:54:37.985Z,-3.80
2018-02-25T05:57:05.589Z,-3.80
2018-02-25T05:59:33.094Z,-3.80
2018-02-25T06:02:00.674Z,-3.80
2018-02-25T06:04:28.175Z,-3.80
2018-02-25T06:06:55.729Z,-3.80
2018-02-25T06:09:23.245Z,-3.90
2018-02-25T06:11:50.876Z,-3.90
2018-02-25T06:14:18.412Z,-3.90
2018-02-25T06:16:46.063Z,-4.00
2018-02-25T06:19:13.577Z,-4.00
2018-02-25T06:21:41.193Z,-4.00
2018-02-25T06:24:08.799Z,-4.10
2018-02-25T06:26:36.504Z,-4.00
2018-02-25T06:29:04.043Z,-4.10
2018-02-25T06:31:32.589Z,-3.90
2018-02-25T06:34:00.221Z,-4.00
2018-02-25T06:36:27.742Z,-3.70
2018-02-25T06:38:55.325Z,-3.50
2018-02-25T06:41:22.898Z,-3.20
2018-02-25T06:43:50.411Z,-2.70
2018-02-25T06:46:17.979Z,-2.60
2018-02-25T06:48:46.250Z,-1.80
2018-02-25T06:51:13.816Z,-1.80
2018-02-25T06:53:42.110Z,-1.30
2018-02-25T06:56:09.660Z,-1.30
2018-02-25T06:58:37.945Z,-0.90
2018-02-25T07:01:06.327Z,-0.70
2018-02-25T07:03:33.852Z,-0.70
2018-02-25T07:06:01.856Z,-0.50
2018-02-25T07:08:40.177Z,-0.50
2018-02-25T07:11:08.719Z,0.10
2018-02-25T07:13:36.233Z,0.30
2018-02-25T07:16:03.872Z,0.70
2018-02-25T07:18:31.452Z,1.10
2018-02-25T07:20:58.993Z,1.30
2018-02-25T07:23:26.563Z,1.80
2018-02-25T07:25:54.100Z,1.90
2018-02-25T07:28:22.484Z,2.50
2018-02-25T07:30:50.017Z,2.40
2018-02-25T07:33:17.568Z,2.40
2018-02-25T07:35:45.129Z,2.80
2018-02-25T07:38:12.652Z,2.80
2018-02-25T07:40:40.203Z,2.60
2018-02-25T07:43:07.778Z,2.80
2018-02-25T07:45:35.355Z,1.40
2018-02-25T07:48:02.895Z,1.00
2018-02-25T07:50:30.507Z,0.90
2018-02-25T07:52:58.815Z,0.90
2018-02-25T07:55:26.318Z,0.90
2018-02-25T07:57:53.947Z,1.10
2018-02-25T08:00:21.531Z,1.20
2018-02-25T08:02:49.071Z,1.20
2018-02-25T08:05:16.640Z,1.20
2018-02-25T08:07:44.172Z,1.40
2018-02-25T08:10:11.773Z,2.20
2018-02-25T08:12:39.309Z,2.80
2018-02-25T08:15:06.799Z,2.90
2018-02-25T08:17:34.335Z,3.10
2018-02-25T08:20:01.848Z,3.40
2018-02-25T08:22:30.162Z,3.80
2018-02-25T08:24:57.683Z,3.70
2018-02-25T08:27:25.229Z,3.50
2018-02-25T08:29:53.491Z,3.00
2018-02-25T08:32:21.082Z,3.00
2018-02-25T08:34:48.608Z,2.80
2018-02-25T08:37:16.194Z,3.50
2018-02-25T08:39:44.488Z,3.80
2018-02-25T08:42:12.107Z,3.70
2018-02-25T08:44:39.615Z,3.80
2018-02-25T08:47:07.175Z,4.10
2018-02-25T08:49:34.712Z,4.50
2018-02-25T08:52:02.256Z,4.70
2018-02-25T08:54:30.529Z,5.40
2018-02-25T08:56:58.849Z,5.60
2018-02-25T08:59:26.393Z,5.60
2018-02-25T09:01:53.971Z,5.80
2018-02-25T09:04:21.460Z,6.10
2018-02-25T09:06:48.992Z,5.80
2018-02-25T09:09:16.535Z,5.50
2018-02-25T09:11:44.994Z,5.40
2018-02-25T09:14:12.552Z,5.40
2018-02-25T09:16:40.084Z,5.60
2018-02-25T09:19:07.587Z,6.60
2018-02-25T09:21:35.127Z,6.20
2018-02-25T09:24:04.291Z,5.80
2018-02-25T09:26:31.834Z,5.80
2018-02-25T09:28:59.390Z,6.00
2018-02-25T09:31:27.066Z,5.60
2018-02-25T09:33:54.681Z,5.90
2018-02-25T09:36:22.265Z,5.90
2018-02-25T09:38:49.793Z,5.70
2018-02-25T09:41:17.386Z,6.00
2018-02-25T09:43:44.887Z,6.40
2018-02-25T09:46:13.231Z,6.70
2018-02-25T09:48:40.745Z,6.70
2018-02-25T09:51:08.480Z,6.70
2018-02-25T09:53:36.004Z,6.90
2018-02-25T09:56:03.648Z,6.10
2018-02-25T09:58:31.159Z,6.10
2018-02-25T10:00:59.454Z,5.30
2018-02-25T10:03:26.964Z,5.30
2018-02-25T10:05:54.518Z,5.40
2018-02-25T10:08:22.042Z,5.60
2018-02-25T10:10:49.587Z,5.30
2018-02-25T10:13:17.885Z,5.30
2018-02-25T10:15:45.394Z,5.30
2018-02-25T10:18:12.916Z,5.40
2018-02-25T10:20:40.460Z,5.50
2018-02-25T10:23:07.987Z,5.30
2018-02-25T10:25:36.397Z,4.70
2018-02-25T10:28:03.944Z,4.70
2018-02-25T10:30:31.502Z,4.20
2018-02-25T10:32:59.011Z,3.90
2018-02-25T10:35:26.593Z,4.40
2018-02-25T10:37:54.109Z,4.60
2018-02-25T10:40:21.629Z,4.70
2018-02-25T10:42:49.941Z,4.70
2018-02-25T10:45:17.464Z,4.70
2018-02-25T10:47:46.202Z,5.50
2018-02-25T10:50:13.759Z,5.50
2018-02-25T10:52:41.695Z,5.60
2018-02-25T10:55:09.329Z,5.80
2018-02-25T10:57:37.719Z,5.90
2018-02-25T11:00:06.034Z,6.00
2018-02-25T11:02:33.591Z,6.00
2018-02-25T11:05:01.108Z,5.90
2018-02-25T11:07:29.429Z,6.20
2018-02-25T11:09:57.065Z,6.20
2018-02-25T11:12:24.632Z,6.30
2018-02-25T11:14:52.231Z,6.20
2018-02-25T11:17:19.767Z,6.70
2018-02-25T11:19:47.292Z,6.40
2018-02-25T11:22:15.633Z,5.90
2018-02-25T11:24:44.684Z,6.00
2018-02-25T11:27:12.252Z,6.00
2018-02-25T11:29:39.792Z,5.80
2018-02-25T11:32:07.330Z,5.90
2018-02-25T11:34:35.615Z,5.40
2018-02-25T11:37:03.921Z,5.30
2018-02-25T11:39:31.469Z,5.30
2018-02-25T11:41:59.012Z,5.20
2018-02-25T11:44:26.568Z,4.90
2018-02-25T11:46:54.880Z,4.40
2018-02-25T11:49:22.439Z,4.30
2018-02-25T11:51:49.990Z,4.20
2018-02-25T11:54:17.718Z,4.40
2018-02-25T11:56:45.993Z,4.20
2018-02-25T11:59:15.951Z,4.20
2018-02-25T12:01:43.457Z,4.00
2018-02-25T12:04:11.068Z,3.90
2018-02-25T12:06:38.677Z,3.80
2018-02-25T12:09:06.278Z,3.50
2018-02-25T12:11:33.792Z,3.40
2018-02-25T12:14:01.396Z,3.40
2018-02-25T12:16:28.943Z,3.40
2018-02-25T12:18:57.303Z,3.60
2018-02-25T12:21:25.603Z,3.60
2018-02-25T12:23:53.126Z,3.60
2018-02-25T12:26:20.707Z,3.60
2018-02-25T12:28:48.977Z,3.30
2018-02-25T12:31:17.276Z,3.10
2018-02-25T12:33:44.826Z,3.10
2018-02-25T12:36:13.159Z,2.70
2018-02-25T12:38:40.695Z,2.60
2018-02-25T12:41:08.285Z,2.60
2018-02-25T12:43:35.776Z,2.40
2018-02-25T12:46:04.078Z,2.40
2018-02-25T12:48:31.588Z,2.30
2018-02-25T12:51:00.014Z,2.70
2018-02-25T12:53:27.547Z,2.70
2018-02-25T12:55:55.878Z,2.50
2018-02-25T12:58:23.411Z,2.50
2018-02-25T13:03:25.100Z,2.60
2018-02-25T13:05:52.603Z,2.60
2018-02-25T13:08:20.170Z,2.60
2018-02-25T13:10:48.459Z,2.50
2018-02-25T13:13:16.001Z,2.50
2018-02-25T13:15:44.300Z,2.60
2018-02-25T13:18:11.863Z,2.60
2018-02-25T13:20:49.437Z,2.60
2018-02-25T13:23:17.743Z,2.50
2018-02-25T13:25:45.408Z,2.50
2018-02-25T13:28:12.960Z,2.60
2018-02-25T13:30:40.500Z,2.50
2018-02-25T13:33:08.867Z,2.40
2018-02-25T13:35:37.189Z,2.40
2018-02-25T13:38:04.851Z,2.40
2018-02-25T13:40:32.400Z,2.30
2018-02-25T13:42:59.938Z,2.30
2018-02-25T13:45:28.211Z,2.30
2018-02-25T13:47:56.529Z,2.30
2018-02-25T13:50:24.207Z,2.30
2018-02-25T13:52:51.786Z,2.30
2018-02-25T13:55:19.416Z,2.30
2018-02-25T13:57:47.015Z,2.30
2018-02-25T14:00:14.522Z,2.30
2018-02-25T14:02:54.183Z,2.40
2018-02-25T14:05:21.903Z,2.50
2018-02-25T14:07:50.228Z,2.60
2018-02-25T14:10:17.737Z,2.60
2018-02-25T14:12:48.455Z,2.40
2018-02-25T14:15:18.424Z,2.30
2018-02-25T14:17:46.593Z,2.30
2018-02-25T14:20:14.103Z,2.40
2018-02-25T14:22:42.391Z,2.30
2018-02-25T14:25:09.984Z,2.30
2018-02-25T14:27:37.512Z,2.20
2018-02-25T14:30:05.866Z,2.10
2018-02-25T14:32:33.401Z,2.10
2018-02-25T14:35:00.935Z,2.20
2018-02-25T14:37:28.558Z,2.20
2018-02-25T14:39:56.028Z,2.30
2018-02-25T14:42:24.330Z,2.30
2018-02-25T14:44:51.888Z,2.20
2018-02-25T14:47:19.457Z,2.20
2018-02-25T14:49:46.973Z,2.20
2018-02-25T14:52:15.266Z,2.20
2018-02-25T14:54:42.781Z,2.20
2018-02-25T14:57:10.337Z,2.30
2018-02-25T14:59:37.864Z,2.20
2018-02-25T15:02:05.394Z,2.20
2018-02-25T15:04:33.740Z,2.10
2018-02-25T15:07:01.314Z,2.10
2018-02-25T15:09:30.226Z,2.00
2018-02-25T15:11:57.755Z,2.00
2018-02-25T15:14:25.312Z,2.00
2018-02-25T15:16:52.825Z,2.00
2018-02-25T15:19:20.396Z,2.00
2018-02-25T15:21:48.044Z,2.00
2018-02-25T15:24:15.545Z,2.00
2018-02-25T15:26:43.074Z,1.90
2018-02-25T15:29:10.579Z,1.90
2018-02-25T15:31:38.888Z,1.80
2018-02-25T15:34:07.195Z,1.80
2018-02-25T15:36:34.764Z,1.80
2018-02-25T15:39:02.369Z,1.80
2018-02-25T15:41:29.847Z,1.80
2018-02-25T15:43:57.431Z,1.70
2018-02-25T15:46:24.948Z,1.60
2018-02-25T15:48:53.245Z,1.70
2018-02-25T15:51:20.755Z,1.70
2018-02-25T15:53:48.301Z,1.70
2018-02-25T15:56:17.403Z,1.90
2018-02-25T15:58:44.979Z,1.90
2018-02-25T16:01:13.316Z,1.70
2018-02-25T16:03:40.856Z,1.70
2018-02-25T16:06:08.370Z,1.60
2018-02-25T16:08:36.739Z,1.50
2018-02-25T16:11:04.247Z,1.50
2018-02-25T16:13:31.764Z,1.40
2018-02-25T16:16:00.056Z,1.30
2018-02-25T16:18:28.361Z,1.20
2018-02-25T16:20:55.874Z,1.20
2018-02-25T16:23:23.429Z,1.20
2018-02-25T16:25:50.951Z,1.10
2018-02-25T16:28:18.490Z,1.00
2018-02-25T16:30:46.026Z,1.00
2018-02-25T16:33:14.484Z,0.80
2018-02-25T16:35:42.008Z,0.70
2018-02-25T16:38:09.757Z,0.70
2018-02-25T16:40:37.293Z,0.60
2018-02-25T16:43:05.624Z,0.60
2018-02-25T16:45:33.164Z,0.60
2018-02-25T16:48:00.739Z,0.60
2018-02-25T16:50:28.239Z,0.60
2018-02-25T16:52:56.651Z,0.50
2018-02-25T16:55:24.199Z,0.50
2018-02-25T16:57:51.770Z,0.50
2018-02-25T17:00:19.276Z,0.40
2018-02-25T17:02:46.832Z,0.40
2018-02-25T17:05:14.368Z,0.30
2018-02-25T17:07:42.023Z,0.30
2018-02-25T17:10:09.515Z,0.10
2018-02-25T17:12:37.072Z,0.00
2018-02-25T17:15:14.583Z,0.00
2018-02-25T17:17:42.881Z,-0.10
2018-02-25T17:20:10.529Z,-0.10
2018-02-25T17:22:38.822Z,-0.10
2018-02-25T17:25:06.389Z,-0.10
2018-02-25T17:27:33.966Z,-0.10
2018-02-25T17:30:01.492Z,-0.10
2018-02-25T17:32:29.907Z,-0.20
2018-02-25T17:34:57.464Z,-0.20
2018-02-25T17:37:25.082Z,-0.20
2018-02-25T17:39:53.396Z,-0.30
2018-02-25T17:42:20.971Z,-0.30
2018-02-25T17:44:49.180Z,-0.30
2018-02-25T17:47:16.778Z,-0.30
2018-02-25T17:49:45.761Z,-0.30
2018-02-25T17:52:13.304Z,-0.20
2018-02-25T17:54:41.653Z,-0.30
2018-02-25T17:57:09.535Z,-0.30
2018-02-25T17:59:37.814Z,-0.20
2018-02-25T18:02:06.186Z,-0.20
2018-02-25T18:04:33.808Z,-0.30
2018-02-25T18:07:01.402Z,-0.20
2018-02-25T18:09:29.002Z,-0.20
2018-02-25T18:11:56.673Z,-0.20
2018-02-25T18:14:24.228Z,-0.20
2018-02-25T18:16:51.784Z,-0.20
2018-02-25T18:19:19.301Z,-0.30
2018-02-25T18:21:46.848Z,-0.30
2018-02-25T18:24:14.390Z,-0.30
2018-02-25T18:26:42.019Z,-0.30
2018-02-25T18:29:09.610Z,-0.40
2018-02-25T18:31:37.160Z,-0.40
2018-02-25T18:34:04.684Z,-0.40
2018-02-25T18:36:33.007Z,-0.40
2018-02-25T18:39:00.526Z,-0.50
2018-02-25T18:41:28.086Z,-0.50
2018-02-25T18:43:57.480Z,-0.60
2018-02-25T18:46:25.044Z,-0.60
2018-02-25T18:48:53.373Z,-0.70
2018-02-25T18:51:20.942Z,-0.70
2018-02-25T18:53:48.495Z,-0.70
2018-02-25T18:56:16.145Z,-0.70
2018-02-25T18:58:43.752Z,-0.70
2018-02-25T19:01:12.109Z,-0.70
2018-02-25T19:03:50.317Z,-0.80
2018-02-25T19:06:17.931Z,-0.80
2018-02-25T19:08:45.540Z,-0.80
2018-02-25T19:11:13.100Z,-0.80
2018-02-25T19:13:40.620Z,-0.80
2018-02-25T19:16:08.159Z,-0.80
2018-02-25T19:18:35.728Z,-0.80
2018-02-25T19:21:03.310Z,-0.80
2018-02-25T19:23:30.849Z,-0.80
2018-02-25T19:25:58.548Z,-0.80
2018-02-25T19:28:26.130Z,-0.80
2018-02-25T19:30:53.670Z,-0.90
2018-02-25T19:33:21.254Z,-0.90
2018-02-25T19:35:55.339Z,-1.00
2018-02-25T19:38:28.461Z,-1.00
2018-02-25T19:41:03.317Z,-1.00
2018-02-25T19:43:30.922Z,-1.00
2018-02-25T19:45:58.477Z,-1.00
2018-02-25T19:48:25.987Z,-1.00
2018-02-25T19:50:53.540Z,-1.00
2018-02-25T19:53:21.120Z,-1.00
2018-02-25T19:55:48.786Z,-1.00
2018-02-25T19:58:16.361Z,-1.10
2018-02-25T20:00:43.944Z,-1.10
2018-02-25T20:03:11.571Z,-1.20
2018-02-25T20:05:48.992Z,-1.20
2018-02-25T20:08:16.635Z,-1.20
2018-02-25T20:10:44.280Z,-1.30
2018-02-25T20:13:13.680Z,-1.40
2018-02-25T20:15:41.238Z,-1.40
2018-02-25T20:18:08.820Z,-1.40
2018-02-25T20:20:36.400Z,-1.40
2018-02-25T20:23:04.209Z,-1.40
2018-02-25T20:25:33.175Z,-1.40
2018-02-25T20:28:01.805Z,-1.40
2018-02-25T20:30:29.432Z,-1.50
2018-02-25T20:32:57.740Z,-1.50
2018-02-25T20:35:25.506Z,-1.50
2018-02-25T20:37:56.064Z,-1.50
2018-02-25T20:40:23.586Z,-1.50
2018-02-25T20:42:51.160Z,-1.50
2018-02-25T20:45:18.711Z,-1.50
2018-02-25T20:47:46.283Z,-1.60
2018-02-25T20:50:13.817Z,-1.60
2018-02-25T20:52:41.392Z,-1.70
2018-02-25T20:55:08.949Z,-1.70
2018-02-25T20:57:36.816Z,-1.70
2018-02-25T21:00:04.361Z,-1.70
2018-02-25T21:02:32.290Z,-1.70
2018-02-25T21:04:59.920Z,-1.70
2018-02-25T21:07:27.459Z,-1.80
2018-02-25T21:09:55.021Z,-1.80
2018-02-25T21:12:22.784Z,-1.90
2018-02-25T21:14:50.291Z,-1.90
2018-02-25T21:17:18.020Z,-1.90
2018-02-25T21:19:45.553Z,-2.00
2018-02-25T21:22:13.083Z,-2.00
2018-02-25T21:24:40.686Z,-1.90
2018-02-25T21:27:08.560Z,-1.90
2018-02-25T21:29:36.113Z,-1.90
2018-02-25T21:32:03.782Z,-2.00
2018-02-25T21:34:31.366Z,-2.00
2018-02-25T21:36:58.993Z,-1.90
2018-02-25T21:39:27.328Z,-2.00
2018-02-25T21:41:54.867Z,-2.10
2018-02-25T21:44:22.484Z,-2.10
2018-02-25T21:46:50.135Z,-2.10
2018-02-25T21:49:18.418Z,-2.10
2018-02-25T21:51:46.023Z,-2.10
2018-02-25T21:54:19.373Z,-2.10
2018-02-25T21:56:52.516Z,-2.20
2018-02-25T21:59:25.822Z,-2.20
2018-02-25T22:01:59.281Z,-2.20
2018-02-25T22:04:27.564Z,-2.30
2018-02-25T22:06:55.111Z,-2.30
2018-02-25T22:09:23.444Z,-2.30
2018-02-25T22:11:51.766Z,-2.30
2018-02-25T22:14:19.292Z,-2.30
2018-02-25T22:16:47.595Z,-2.40
2018-02-25T22:19:15.141Z,-2.40
2018-02-25T22:21:42.695Z,-2.50
2018-02-25T22:24:10.982Z,-2.50
2018-02-25T22:26:38.547Z,-2.50
2018-02-25T22:29:06.074Z,-2.50
2018-02-25T22:31:34.432Z,-2.60
2018-02-25T22:34:02.032Z,-2.60
2018-02-25T22:36:29.584Z,-2.60
2018-02-25T22:38:58.641Z,-2.60
2018-02-25T22:41:26.167Z,-2.60
2018-02-25T22:43:53.701Z,-2.60
2018-02-25T22:46:21.272Z,-2.60
2018-02-25T22:48:48.779Z,-2.70
2018-02-25T22:51:18.627Z,-2.70
2018-02-25T22:53:46.907Z,-2.70
2018-02-25T22:56:14.447Z,-2.70
2018-02-25T22:58:42.741Z,-2.70
2018-02-25T23:01:11.240Z,-2.70
2018-02-25T23:03:38.804Z,-2.70
2018-02-25T23:06:06.344Z,-2.70
2018-02-25T23:08:33.917Z,-2.80
2018-02-25T23:11:01.470Z,-2.80
2018-02-25T23:13:28.987Z,-2.80
2018-02-25T23:15:56.528Z,-2.80
2018-02-25T23:18:24.052Z,-2.80
2018-02-25T23:20:51.603Z,-2.80
2018-02-25T23:23:29.062Z,-2.80
2018-02-25T23:25:56.686Z,-2.80
2018-02-25T23:28:24.199Z,-2.90
2018-02-25T23:30:53.179Z,-2.90
2018-02-25T23:33:21.489Z,-3.00
2018-02-25T23:35:49.161Z,-3.00
2018-02-25T23:38:16.848Z,-2.90
2018-02-25T23:40:44.422Z,-3.00
2018-02-25T23:43:12.000Z,-3.00
2018-02-25T23:45:40.311Z,-3.00
2018-02-25T23:48:07.831Z,-3.00
2018-02-25T23:50:35.423Z,-3.00
2018-02-25T23:53:02.976Z,-3.00
2018-02-25T23:55:30.648Z,-3.00
2018-02-25T23:57:58.261Z,-3.00
